createdAt,value
2018-06-05T00:01:27.442Z,8.90
2018-06-05T00:03:56.182Z,8.47
2018-06-05T00:06:24.995Z,8.80
2018-06-05T00:08:53.787Z,8.20
2018-06-05T00:11:22.556Z,9.57
2018-06-05T00:13:51.329Z,9.10
2018-06-05T00:16:20.089Z,8.10
2018-06-05T00:18:48.952Z,8.03
2018-06-05T00:21:17.706Z,8.90
2018-06-05T00:23:46.461Z,8.37
2018-06-05T00:26:15.212Z,8.60
2018-06-05T00:28:43.985Z,7.70
2018-06-05T00:31:12.755Z,8.40
2018-06-05T00:33:41.504Z,7.70
2018-06-05T00:36:10.293Z,8.17
2018-06-05T00:38:39.036Z,8.27
2018-06-05T00:41:07.850Z,7.90
2018-06-05T00:43:36.583Z,8.40
2018-06-05T00:46:05.330Z,8.03
2018-06-05T00:48:34.079Z,8.13
2018-06-05T00:51:09.236Z,8.73
2018-06-05T00:53:38.006Z,7.87
2018-06-05T00:56:06.757Z,7.50
2018-06-05T00:58:35.526Z,8.17
2018-06-05T01:01:04.295Z,8.37
2018-06-05T01:03:33.104Z,7.97
2018-06-05T01:06:01.881Z,8.80
2018-06-05T01:08:30.667Z,8.13
2018-06-05T01:10:59.454Z,8.30
2018-06-05T01:13:28.219Z,7.73
2018-06-05T01:15:56.991Z,8.23
2018-06-05T01:18:25.761Z,8.40
2018-06-05T01:20:54.543Z,7.93
2018-06-05T01:23:23.297Z,8.13
2018-06-05T01:25:52.132Z,7.83
2018-06-05T01:28:20.876Z,7.83
2018-06-05T01:30:49.617Z,8.00
2018-06-05T01:33:18.401Z,8.43
2018-06-05T01:35:47.151Z,8.53
2018-06-05T01:38:15.915Z,8.23
2018-06-05T01:40:44.671Z,8.30
2018-06-05T01:43:13.422Z,8.53
2018-06-05T01:45:42.201Z,7.83
2018-06-05T01:48:11.025Z,8.03
2018-06-05T01:50:39.842Z,8.93
2018-06-05T01:53:08.579Z,8.63
2018-06-05T01:55:37.337Z,8.47
2018-06-05T01:58:06.100Z,10.47
2018-06-05T02:00:34.859Z,11.17
2018-06-05T02:03:03.596Z,11.20
2018-06-05T02:05:32.350Z,10.73
2018-06-05T02:08:01.156Z,11.27
2018-06-05T02:10:30.054Z,11.13
2018-06-05T02:12:58.812Z,10.47
2018-06-05T02:15:27.598Z,10.27
2018-06-05T02:17:56.384Z,11.37
2018-06-05T02:20:25.154Z,11.70
2018-06-05T02:22:53.910Z,11.97
2018-06-05T02:25:22.663Z,10.47
2018-06-05T02:27:51.425Z,10.50
2018-06-05T02:30:20.178Z,10.50
2018-06-05T02:32:49.064Z,11.03
2018-06-05T02:35:17.854Z,11.67
2018-06-05T02:37:46.684Z,11.03
2018-06-05T02:40:15.439Z,11.33
2018-06-05T02:42:44.211Z,10.47
2018-06-05T02:45:13.004Z,10.33
2018-06-05T02:47:41.768Z,11.67
2018-06-05T02:50:10.561Z,10.87
2018-06-05T02:52:39.331Z,11.30
2018-06-05T02:55:08.171Z,10.50
2018-06-05T02:57:36.957Z,9.53
2018-06-05T03:00:06.075Z,9.53
2018-06-05T03:02:34.836Z,10.33
2018-06-05T03:05:03.622Z,9.97
2018-06-05T03:07:32.357Z,9.60
2018-06-05T03:10:01.097Z,10.10
2018-06-05T03:12:29.876Z,10.13
2018-06-05T03:14:58.707Z,9.60
2018-06-05T03:17:27.535Z,9.30
2018-06-05T03:19:56.380Z,9.23
2018-06-05T03:22:25.128Z,9.70
2018-06-05T03:24:53.889Z,9.60
2018-06-05T03:27:22.659Z,8.60
2018-06-05T03:29:51.415Z,9.60
2018-06-05T03:32:20.283Z,9.77
2018-06-05T03:34:49.103Z,8.77
2018-06-05T03:37:17.872Z,8.33
2018-06-05T03:39:46.669Z,8.70
2018-06-05T03:42:15.423Z,7.03
2018-06-05T03:44:44.212Z,7.47
2018-06-05T03:47:13.000Z,6.37
2018-06-05T03:49:42.127Z,6.33
2018-06-05T03:52:11.380Z,6.17
2018-06-05T03:54:40.136Z,6.63
2018-06-05T03:57:08.944Z,6.20
2018-06-05T03:59:37.695Z,5.90
2018-06-05T04:02:06.509Z,6.00
2018-06-05T04:04:35.247Z,6.03
2018-06-05T04:07:04.018Z,5.80
2018-06-05T04:09:32.812Z,6.10
2018-06-05T04:12:01.559Z,6.13
2018-06-05T04:14:30.334Z,6.00
2018-06-05T04:16:59.178Z,5.60
2018-06-05T04:19:27.912Z,5.57
2018-06-05T04:21:56.736Z,5.80
2018-06-05T04:24:26.091Z,5.53
2018-06-05T04:26:54.865Z,6.90
2018-06-05T04:29:23.640Z,6.30
2018-06-05T04:31:52.421Z,6.20
2018-06-05T04:34:21.189Z,5.90
2018-06-05T04:36:50.031Z,6.33
2018-06-05T04:39:18.814Z,7.00
2018-06-05T04:41:47.572Z,6.97
2018-06-05T04:44:16.371Z,8.13
2018-06-05T04:46:45.237Z,7.53
2018-06-05T04:49:14.042Z,8.10
2018-06-05T04:51:42.961Z,7.33
2018-06-05T04:54:11.731Z,8.50
2018-06-05T04:56:40.498Z,8.23
2018-06-05T04:59:09.262Z,7.87
2018-06-05T05:01:38.014Z,8.53
2018-06-05T05:04:06.769Z,8.35
2018-06-05T05:06:35.513Z,8.00
2018-06-05T05:09:05.116Z,8.15
2018-06-05T05:11:33.874Z,7.78
2018-06-05T05:14:02.679Z,8.18
2018-06-05T05:16:31.511Z,8.08
2018-06-05T05:19:00.326Z,8.10
2018-06-05T05:21:29.084Z,8.73
2018-06-05T05:23:57.858Z,10.60
2018-06-05T05:26:26.654Z,9.90
2018-06-05T05:28:55.410Z,10.80
2018-06-05T05:31:24.255Z,10.57
2018-06-05T05:33:53.027Z,10.70
2018-06-05T05:36:21.779Z,11.70
2018-06-05T05:38:50.547Z,10.80
2018-06-05T05:41:19.337Z,11.40
2018-06-05T05:43:48.160Z,10.97
2018-06-05T05:46:16.942Z,11.40
2018-06-05T05:48:45.708Z,10.73
2018-06-05T05:51:14.482Z,11.70
2018-06-05T05:53:43.253Z,11.20
2018-06-05T05:56:12.063Z,10.83
2018-06-05T05:58:40.904Z,11.00
2018-06-05T06:01:09.679Z,11.87
2018-06-05T06:03:38.450Z,11.57
2018-06-05T06:06:07.203Z,11.83
2018-06-05T06:08:35.939Z,11.57
2018-06-05T06:11:04.722Z,12.10
2018-06-05T06:13:33.575Z,11.40
2018-06-05T06:16:02.390Z,12.57
2018-06-05T06:18:31.143Z,11.50
2018-06-05T06:21:00.002Z,11.93
2018-06-05T06:23:28.767Z,11.87
2018-06-05T06:25:57.573Z,12.13
2018-06-05T06:28:26.352Z,11.93
2018-06-05T06:30:55.140Z,12.07
2018-06-05T06:33:23.924Z,11.90
2018-06-05T06:35:52.709Z,11.97
2018-06-05T06:38:21.591Z,12.80
2018-06-05T06:40:51.400Z,11.97
2018-06-05T06:43:20.190Z,12.47
2018-06-05T06:45:49.485Z,13.00
2018-06-05T06:48:18.233Z,11.80
2018-06-05T06:50:47.265Z,12.27
2018-06-05T06:53:16.085Z,12.07
2018-06-05T06:55:44.858Z,11.40
2018-06-05T06:58:13.629Z,11.37
2018-06-05T07:00:42.455Z,11.47
2018-06-05T07:03:11.258Z,11.43
2018-06-05T07:05:40.031Z,12.77
2018-06-05T07:08:08.774Z,11.70
2018-06-05T07:10:37.548Z,11.40
2018-06-05T07:13:06.334Z,11.13
2018-06-05T07:15:35.124Z,11.23
2018-06-05T07:18:03.915Z,10.57
2018-06-05T07:20:32.684Z,10.17
2018-06-05T07:23:01.562Z,10.90
2018-06-05T07:25:30.361Z,9.17
2018-06-05T07:27:59.150Z,10.30
2018-06-05T07:30:27.911Z,9.97
2018-06-05T07:32:56.692Z,7.50
2018-06-05T07:35:25.507Z,7.10
2018-06-05T07:37:54.294Z,6.97
2018-06-05T07:40:23.059Z,7.13
2018-06-05T07:42:51.824Z,7.20
2018-06-05T07:45:20.687Z,7.00
2018-06-05T07:47:49.464Z,6.97
2018-06-05T07:50:18.328Z,6.47
2018-06-05T07:52:47.103Z,6.33
2018-06-05T07:55:15.915Z,8.80
2018-06-05T07:57:44.653Z,7.10
2018-06-05T08:00:13.398Z,6.77
2018-06-05T08:02:42.172Z,7.40
2018-06-05T08:05:10.944Z,7.27
2018-06-05T08:07:39.770Z,6.37
2018-06-05T08:10:08.548Z,7.37
2018-06-05T08:12:37.326Z,6.50
2018-06-05T08:15:06.339Z,7.50
2018-06-05T08:17:35.113Z,6.80
2018-06-05T08:20:04.010Z,5.97
2018-06-05T08:22:42.506Z,6.63
2018-06-05T08:25:11.295Z,7.30
2018-06-05T08:27:40.168Z,8.50
2018-06-05T08:30:09.008Z,8.27
2018-06-05T08:32:37.826Z,7.30
2018-06-05T08:35:06.643Z,8.37
2018-06-05T08:37:35.442Z,7.30
2018-06-05T08:40:04.291Z,7.83
2018-06-05T08:42:33.044Z,7.07
2018-06-05T08:45:01.884Z,6.70
2018-06-05T08:47:30.635Z,6.13
2018-06-05T08:49:59.416Z,6.67
2018-06-05T08:52:28.190Z,6.40
2018-06-05T08:54:56.977Z,6.00
2018-06-05T08:57:25.753Z,7.27
2018-06-05T08:59:54.562Z,6.83
2018-06-05T09:02:23.375Z,6.20
2018-06-05T09:04:52.139Z,6.67
2018-06-05T09:07:20.893Z,7.10
2018-06-05T09:09:49.668Z,6.60
2018-06-05T09:12:18.530Z,6.73
2018-06-05T09:14:47.322Z,5.60
2018-06-05T09:17:16.073Z,5.50
2018-06-05T09:19:44.920Z,5.57
2018-06-05T09:22:13.684Z,5.93
2018-06-05T09:24:42.451Z,5.70
2018-06-05T09:27:11.205Z,5.20
2018-06-05T09:29:39.959Z,5.03
2018-06-05T09:32:08.726Z,6.10
2018-06-05T09:34:37.539Z,4.97
2018-06-05T09:37:06.318Z,5.10
2018-06-05T09:39:35.064Z,5.20
2018-06-05T09:42:03.915Z,4.57
2018-06-05T09:44:32.677Z,4.07
2018-06-05T09:47:01.431Z,4.30
2018-06-05T09:49:30.206Z,4.20
2018-06-05T09:51:58.984Z,4.70
2018-06-05T09:54:27.799Z,4.50
2018-06-05T09:56:56.684Z,4.40
2018-06-05T09:59:25.454Z,4.67
2018-06-05T10:01:54.223Z,4.60
2018-06-05T10:04:23.067Z,3.80
2018-06-05T10:06:51.824Z,4.97
2018-06-05T10:09:20.588Z,4.43
2018-06-05T10:11:49.348Z,4.33
2018-06-05T10:14:18.200Z,4.77
2018-06-05T10:16:46.958Z,4.33
2018-06-05T10:19:15.754Z,6.97
2018-06-05T10:21:44.566Z,5.57
2018-06-05T10:24:13.308Z,4.30
2018-06-05T10:26:42.075Z,4.50
2018-06-05T10:29:10.836Z,4.03
2018-06-05T10:31:39.604Z,4.93
2018-06-05T10:34:08.418Z,4.70
2018-06-05T10:36:37.191Z,4.20
2018-06-05T10:39:07.830Z,4.40
2018-06-05T10:41:36.647Z,4.43
2018-06-05T10:44:05.424Z,4.30
2018-06-05T10:46:34.187Z,4.00
2018-06-05T10:49:03.009Z,4.77
2018-06-05T10:51:31.775Z,5.83
2018-06-05T10:54:00.538Z,4.57
2018-06-05T10:56:29.337Z,4.57
2018-06-05T10:58:58.200Z,4.73
2018-06-05T11:01:26.994Z,4.00
2018-06-05T11:03:55.816Z,4.53
2018-06-05T11:06:24.607Z,4.40
2018-06-05T11:08:53.427Z,4.20
2018-06-05T11:11:22.202Z,4.40
2018-06-05T11:13:50.997Z,4.30
2018-06-05T11:16:19.758Z,4.53
2018-06-05T11:18:48.527Z,4.10
2018-06-05T11:21:17.305Z,4.87
2018-06-05T11:23:46.153Z,4.03
2018-06-05T11:26:14.982Z,4.07
2018-06-05T11:28:43.730Z,4.30
2018-06-05T11:31:12.474Z,4.40
2018-06-05T11:33:41.264Z,4.40
2018-06-05T11:36:10.039Z,5.13
2018-06-05T11:38:38.816Z,5.23
2018-06-05T11:41:07.581Z,4.63
2018-06-05T11:43:36.365Z,4.70
2018-06-05T11:46:05.353Z,5.20
2018-06-05T11:48:34.151Z,5.07
2018-06-05T11:51:02.943Z,4.73
2018-06-05T11:53:31.727Z,5.20
2018-06-05T11:56:00.461Z,4.43
2018-06-05T11:58:29.261Z,4.20
2018-06-05T12:00:58.057Z,5.67
2018-06-05T12:03:26.800Z,5.57
2018-06-05T12:05:55.622Z,4.43
2018-06-05T12:08:24.388Z,4.77
2018-06-05T12:10:53.187Z,5.27
2018-06-05T12:13:21.933Z,4.60
2018-06-05T12:15:50.713Z,5.33
2018-06-05T12:18:19.486Z,4.77
2018-06-05T12:20:48.248Z,5.00
2018-06-05T12:23:17.030Z,5.60
2018-06-05T12:25:45.855Z,5.00
2018-06-05T12:28:14.644Z,5.00
2018-06-05T12:30:43.425Z,4.80
2018-06-05T12:33:12.225Z,5.00
2018-06-05T12:35:40.982Z,4.97
2018-06-05T12:38:09.782Z,5.33
2018-06-05T12:40:38.556Z,4.73
2018-06-05T12:43:07.671Z,4.57
2018-06-05T12:45:36.408Z,5.40
2018-06-05T12:48:05.416Z,4.90
2018-06-05T12:50:34.184Z,5.30
2018-06-05T12:53:03.007Z,5.73
2018-06-05T12:55:31.885Z,4.50
2018-06-05T12:58:00.722Z,4.90
2018-06-05T13:00:29.533Z,5.07
2018-06-05T13:02:58.355Z,5.10
2018-06-05T13:05:27.211Z,4.60
2018-06-05T13:07:55.967Z,4.73
2018-06-05T13:10:24.723Z,4.40
2018-06-05T13:12:53.491Z,4.60
2018-06-05T13:15:22.294Z,5.57
2018-06-05T13:17:51.164Z,5.73
2018-06-05T13:20:19.933Z,6.70
2018-06-05T13:22:48.816Z,4.70
2018-06-05T13:25:17.585Z,4.53
2018-06-05T13:27:46.379Z,5.40
2018-06-05T13:30:15.178Z,5.07
2018-06-05T13:32:44.014Z,5.10
2018-06-05T13:35:12.801Z,5.20
2018-06-05T13:37:41.590Z,5.30
2018-06-05T13:40:10.465Z,5.40
2018-06-05T13:42:39.279Z,5.17
2018-06-05T13:45:08.038Z,5.60
2018-06-05T13:47:36.782Z,4.90
2018-06-05T13:50:05.598Z,5.23
2018-06-05T13:52:34.421Z,5.83
2018-06-05T13:55:03.215Z,5.70
2018-06-05T13:57:32.013Z,5.13
2018-06-05T14:00:00.775Z,4.80
2018-06-05T14:02:29.656Z,5.33
2018-06-05T14:04:58.438Z,5.70
2018-06-05T14:07:27.240Z,6.00
2018-06-05T14:09:56.015Z,5.40
2018-06-05T14:12:24.796Z,5.13
2018-06-05T14:14:53.557Z,5.07
2018-06-05T14:17:22.424Z,6.17
2018-06-05T14:19:51.194Z,5.07
2018-06-05T14:22:19.968Z,5.07
2018-06-05T14:24:48.879Z,4.77
2018-06-05T14:27:17.647Z,5.13
2018-06-05T14:29:46.417Z,5.40
2018-06-05T14:32:15.174Z,4.80
2018-06-05T14:34:43.943Z,5.07
2018-06-05T14:37:12.705Z,4.73
2018-06-05T14:39:41.470Z,5.17
2018-06-05T14:42:10.257Z,5.03
2018-06-05T14:44:39.015Z,5.47
2018-06-05T14:47:07.891Z,5.83
2018-06-05T14:49:36.666Z,5.27
2018-06-05T14:52:05.476Z,4.90
2018-06-05T14:54:34.246Z,4.43
2018-06-05T14:57:03.027Z,4.50
2018-06-05T14:59:31.821Z,4.70
2018-06-05T15:02:00.599Z,4.63
2018-06-05T15:04:29.405Z,5.50
2018-06-05T15:06:58.187Z,5.70
2018-06-05T15:09:27.030Z,6.33
2018-06-05T15:11:55.795Z,5.67
2018-06-05T15:14:24.575Z,6.40
2018-06-05T15:16:53.360Z,5.93
2018-06-05T15:19:22.166Z,5.50
2018-06-05T15:21:50.947Z,5.20
2018-06-05T15:24:19.735Z,5.93
2018-06-05T15:26:48.518Z,5.57
2018-06-05T15:29:17.292Z,5.47
2018-06-05T15:31:46.128Z,5.00
2018-06-05T15:34:14.955Z,5.30
2018-06-05T15:36:43.739Z,5.33
2018-06-05T15:39:12.568Z,5.80
2018-06-05T15:41:41.392Z,5.40
2018-06-05T15:44:10.198Z,5.37
2018-06-05T15:46:38.999Z,5.87
2018-06-05T15:49:07.837Z,5.57
2018-06-05T15:51:36.610Z,5.07
2018-06-05T15:54:05.662Z,6.07
2018-06-05T15:56:34.618Z,5.53
2018-06-05T15:59:03.415Z,5.97
2018-06-05T16:01:32.166Z,5.27
2018-06-05T16:04:00.952Z,4.93
2018-06-05T16:06:30.084Z,5.57
2018-06-05T16:08:58.852Z,5.60
2018-06-05T16:11:27.667Z,5.20
2018-06-05T16:13:56.432Z,5.87
2018-06-05T16:16:25.245Z,5.30
2018-06-05T16:18:54.025Z,5.67
2018-06-05T16:21:22.790Z,5.03
2018-06-05T16:23:51.587Z,5.80
2018-06-05T16:26:20.431Z,6.43
2018-06-05T16:28:49.191Z,5.83
2018-06-05T16:31:17.958Z,5.77
2018-06-05T16:33:46.751Z,5.70
2018-06-05T16:36:15.566Z,5.57
2018-06-05T16:38:44.348Z,5.47
2018-06-05T16:41:13.143Z,5.47
2018-06-05T16:43:41.900Z,5.80
2018-06-05T16:46:10.763Z,5.87
2018-06-05T16:48:39.534Z,5.70
2018-06-05T16:51:08.352Z,5.53
2018-06-05T16:53:37.161Z,6.17
2018-06-05T16:56:05.956Z,5.87
2018-06-05T16:58:34.794Z,5.70
2018-06-05T17:01:03.586Z,6.17
2018-06-05T17:03:32.423Z,5.80
2018-06-05T17:06:01.197Z,5.87
2018-06-05T17:08:30.041Z,6.63
2018-06-05T17:10:58.804Z,6.43
2018-06-05T17:13:27.589Z,5.97
2018-06-05T17:15:56.402Z,6.47
2018-06-05T17:18:25.159Z,6.27
2018-06-05T17:20:53.964Z,7.43
2018-06-05T17:23:22.806Z,6.27
2018-06-05T17:25:51.598Z,6.10
2018-06-05T17:28:20.462Z,5.73
2018-06-05T17:30:49.488Z,5.90
2018-06-05T17:33:18.270Z,5.70
2018-06-05T17:35:47.073Z,6.20
2018-06-05T17:38:15.858Z,6.47
2018-06-05T17:40:44.682Z,6.70
2018-06-05T17:43:13.504Z,6.30
2018-06-05T17:45:42.353Z,6.20
2018-06-05T17:48:11.208Z,6.30
2018-06-05T17:50:40.042Z,6.60
2018-06-05T17:53:09.688Z,6.50
2018-06-05T17:55:38.455Z,6.73
2018-06-05T17:58:07.243Z,6.80
2018-06-05T18:00:36.059Z,6.53
2018-06-05T18:03:04.974Z,6.20
2018-06-05T18:05:33.827Z,6.40
2018-06-05T18:08:02.690Z,6.10
2018-06-05T18:10:31.458Z,6.40
2018-06-05T18:13:00.219Z,6.33
2018-06-05T18:15:29.035Z,6.43
2018-06-05T18:17:57.881Z,6.50
2018-06-05T18:20:26.733Z,6.67
2018-06-05T18:22:55.535Z,6.77
2018-06-05T18:25:24.330Z,6.87
2018-06-05T18:27:53.184Z,6.37
2018-06-05T18:30:22.139Z,6.90
2018-06-05T18:32:50.920Z,6.30
2018-06-05T18:35:19.740Z,6.17
2018-06-05T18:37:48.542Z,6.80
2018-06-05T18:40:17.357Z,6.73
2018-06-05T18:42:46.224Z,7.30
2018-06-05T18:45:15.060Z,7.00
2018-06-05T18:47:43.848Z,7.40
2018-06-05T18:50:12.705Z,6.87
2018-06-05T18:52:41.634Z,7.13
2018-06-05T18:55:10.394Z,6.90
2018-06-05T18:57:39.303Z,6.97
2018-06-05T19:00:08.438Z,6.27
2018-06-05T19:02:37.405Z,6.60
2018-06-05T19:05:06.371Z,6.87
2018-06-05T19:07:35.451Z,6.53
2018-06-05T19:10:04.455Z,6.67
2018-06-05T19:12:33.306Z,6.37
2018-06-05T19:15:02.236Z,6.63
2018-06-05T19:17:31.258Z,6.90
2018-06-05T19:20:00.054Z,7.03
2018-06-05T19:22:28.859Z,6.50
2018-06-05T19:24:57.730Z,6.40
2018-06-05T19:27:26.537Z,6.83
2018-06-05T19:29:55.385Z,6.13
2018-06-05T19:32:24.235Z,6.73
2018-06-05T19:34:53.166Z,6.77
2018-06-05T19:37:22.076Z,6.93
2018-06-05T19:39:50.951Z,7.53
2018-06-05T19:42:19.775Z,6.83
2018-06-05T19:44:48.592Z,6.83
2018-06-05T19:47:18.282Z,6.93
2018-06-05T19:49:47.049Z,7.20
2018-06-05T19:52:15.946Z,7.60
2018-06-05T19:54:44.757Z,7.10
2018-06-05T19:57:13.575Z,6.77
2018-06-05T19:59:42.409Z,6.73
2018-06-05T20:02:11.230Z,7.00
2018-06-05T20:04:40.120Z,7.37
2018-06-05T20:07:08.987Z,7.10
2018-06-05T20:09:37.890Z,7.63
2018-06-05T20:12:06.889Z,7.73
2018-06-05T20:14:35.693Z,7.37
2018-06-05T20:17:04.540Z,7.37
2018-06-05T20:19:33.340Z,7.40
2018-06-05T20:22:02.259Z,7.43
2018-06-05T20:24:31.130Z,7.77
2018-06-05T20:26:59.949Z,7.70
2018-06-05T20:29:28.772Z,7.33
2018-06-05T20:31:57.593Z,7.67
2018-06-05T20:34:26.396Z,7.80
2018-06-05T20:36:55.213Z,8.00
2018-06-05T20:39:23.998Z,8.60
2018-06-05T20:41:52.782Z,8.40
2018-06-05T20:44:21.686Z,8.60
2018-06-05T20:46:50.503Z,8.07
2018-06-05T20:49:19.353Z,7.93
2018-06-05T20:51:48.137Z,8.07
2018-06-05T20:54:16.944Z,7.97
2018-06-05T20:56:45.742Z,8.80
2018-06-05T20:59:14.524Z,7.60
2018-06-05T21:01:43.279Z,7.47
2018-06-05T21:04:12.052Z,7.37
2018-06-05T21:06:40.981Z,7.77
2018-06-05T21:09:09.764Z,7.80
2018-06-05T21:11:38.547Z,8.17
2018-06-05T21:14:07.295Z,8.50
2018-06-05T21:16:36.074Z,8.53
2018-06-05T21:19:05.023Z,8.17
2018-06-05T21:21:33.825Z,7.70
2018-06-05T21:24:02.677Z,8.17
2018-06-05T21:26:31.403Z,7.87
2018-06-05T21:29:00.212Z,7.70
2018-06-05T21:31:28.951Z,7.40
2018-06-05T21:33:57.743Z,7.47
2018-06-05T21:36:26.542Z,7.73
2018-06-05T21:38:55.335Z,7.67
2018-06-05T21:41:24.122Z,7.50
2018-06-05T21:43:52.890Z,7.60
2018-06-05T21:46:21.688Z,7.30
2018-06-05T21:48:50.455Z,7.53
2018-06-05T21:51:19.266Z,7.67
2018-06-05T21:53:48.012Z,7.50
2018-06-05T21:56:16.773Z,7.63
2018-06-05T21:58:45.522Z,7.47
2018-06-05T22:01:14.261Z,7.67
2018-06-05T22:03:43.008Z,6.97
2018-06-05T22:06:11.776Z,7.73
2018-06-05T22:08:40.531Z,7.80
2018-06-05T22:11:09.432Z,7.53
2018-06-05T22:13:38.299Z,7.70
2018-06-05T22:16:07.027Z,7.80
2018-06-05T22:18:35.807Z,7.47
2018-06-05T22:21:04.615Z,7.93
2018-06-05T22:23:33.391Z,8.63
2018-06-05T22:26:02.158Z,9.03
2018-06-05T22:28:30.919Z,8.30
2018-06-05T22:30:59.674Z,8.23
2018-06-05T22:33:28.456Z,9.17
2018-06-05T22:35:57.293Z,8.23
2018-06-05T22:38:26.137Z,8.87
2018-06-05T22:40:54.952Z,8.80
2018-06-05T22:43:23.717Z,8.13
2018-06-05T22:45:52.472Z,8.30
2018-06-05T22:48:21.220Z,8.23
2018-06-05T22:50:49.992Z,8.70
2018-06-05T22:53:18.767Z,8.43
2018-06-05T22:55:47.531Z,8.27
2018-06-05T22:58:16.373Z,7.90
2018-06-05T23:00:45.150Z,9.10
2018-06-05T23:03:13.927Z,8.73
2018-06-05T23:05:42.727Z,8.17
2018-06-05T23:08:11.492Z,8.87
2018-06-05T23:10:40.288Z,8.90
2018-06-05T23:13:09.092Z,8.43
2018-06-05T23:15:37.875Z,8.57
2018-06-05T23:18:06.646Z,8.10
2018-06-05T23:20:35.455Z,8.80
2018-06-05T23:23:04.215Z,8.80
2018-06-05T23:25:33.631Z,8.63
2018-06-05T23:28:02.375Z,8.80
2018-06-05T23:30:31.139Z,8.93
2018-06-05T23:32:59.942Z,9.47
2018-06-05T23:35:28.712Z,9.37
2018-06-05T23:37:57.480Z,8.43
2018-06-05T23:40:26.243Z,9.03
2018-06-05T23:42:55.102Z,9.27
2018-06-05T23:45:23.923Z,9.23
2018-06-05T23:47:52.678Z,9.53
2018-06-05T23:50:21.448Z,9.30
2018-06-05T23:52:50.208Z,8.20
2018-06-05T23:55:18.994Z,9.03
2018-06-05T23:57:47.726Z,9.17
